sensor_id;sensor_type;location;lat;lon;timestamp;temperature;humidity
14252;DHT22;7210;51.502;10.722;2023-07-24T00:00:49;18.00;1.00
14252;DHT22;7210;51.502;10.722;2023-07-24T00:03:16;18.00;1.00
14252;DHT22;7210;51.502;10.722;2023-07-24T00:05:43;18.00;1.00
14252;DHT22;7210;51.502;10.722;2023-07-24T00:08:11;17.90;1.00
14252;DHT22;7210;51.502;10.722;2023-07-24T00:10:39;17.90;1.00
14252;DHT22;7210;51.502;10.722;2023-07-24T00:13:07;17.80;1.00
14252;DHT22;7210;51.502;10.722;2023-07-24T00:15:34;17.80;1.00
14252;DHT22;7210;51.502;10.722;2023-07-24T00:18:01;17.80;1.00
14252;DHT22;7210;51.502;10.722;2023-07-24T00:20:29;17.80;1.00
14252;DHT22;7210;51.502;10.722;2023-07-24T00:22:56;17.80;1.00
14252;DHT22;7210;51.502;10.722;2023-07-24T00:25:23;17.80;1.00
14252;DHT22;7210;51.502;10.722;2023-07-24T00:27:52;17.80;1.00
14252;DHT22;7210;51.502;10.722;2023-07-24T00:30:19;17.70;1.00
14252;DHT22;7210;51.502;10.722;2023-07-24T00:32:51;17.70;1.00
14252;DHT22;7210;51.502;10.722;2023-07-24T00:35:18;17.70;1.00
14252;DHT22;7210;51.502;10.722;2023-07-24T00:37:46;17.70;1.00
14252;DHT22;7210;51.502;10.722;2023-07-24T00:40:13;17.70;1.00
14252;DHT22;7210;51.502;10.722;2023-07-24T00:42:47;17.60;1.00
14252;DHT22;7210;51.502;10.722;2023-07-24T00:45:16;17.60;1.00
14252;DHT22;7210;51.502;10.722;2023-07-24T00:47:44;17.60;1.00
14252;DHT22;7210;51.502;10.722;2023-07-24T00:50:12;17.50;1.00
14252;DHT22;7210;51.502;10.722;2023-07-24T00:52:40;17.50;1.00
14252;DHT22;7210;51.502;10.722;2023-07-24T00:55:12;17.40;1.00
14252;DHT22;7210;51.502;10.722;2023-07-24T00:57:42;17.30;1.00
14252;DHT22;7210;51.502;10.722;2023-07-24T01:00:17;17.30;1.00
14252;DHT22;7210;51.502;10.722;2023-07-24T01:02:46;17.30;1.00
14252;DHT22;7210;51.502;10.722;2023-07-24T01:05:15;17.30;1.00
14252;DHT22;7210;51.502;10.722;2023-07-24T01:07:43;17.30;1.00
14252;DHT22;7210;51.502;10.722;2023-07-24T01:10:11;17.20;1.00
14252;DHT22;7210;51.502;10.722;2023-07-24T01:12:42;17.20;1.00
14252;DHT22;7210;51.502;10.722;2023-07-24T01:15:24;17.10;1.00
14252;DHT22;7210;51.502;10.722;2023-07-24T01:17:59;17.00;1.00
14252;DHT22;7210;51.502;10.722;2023-07-24T01:20:35;17.00;1.00
14252;DHT22;7210;51.502;10.722;2023-07-24T01:23:13;17.00;1.00
14252;DHT22;7210;51.502;10.722;2023-07-24T01:25:57;16.90;1.00
14252;DHT22;7210;51.502;10.722;2023-07-24T01:28:27;16.90;1.00
14252;DHT22;7210;51.502;10.722;2023-07-24T01:30:56;16.70;1.00
14252;DHT22;7210;51.502;10.722;2023-07-24T01:33:24;16.70;1.00
14252;DHT22;7210;51.502;10.722;2023-07-24T01:35:54;16.70;1.00
14252;DHT22;7210;51.502;10.722;2023-07-24T01:38:25;16.70;1.00
14252;DHT22;7210;51.502;10.722;2023-07-24T01:40:59;16.60;1.00
14252;DHT22;7210;51.502;10.722;2023-07-24T01:43:27;16.60;1.00
14252;DHT22;7210;51.502;10.722;2023-07-24T01:45:56;16.50;1.00
14252;DHT22;7210;51.502;10.722;2023-07-24T01:48:23;16.50;1.00
14252;DHT22;7210;51.502;10.722;2023-07-24T01:50:50;16.40;1.00
14252;DHT22;7210;51.502;10.722;2023-07-24T01:53:18;16.40;1.00
14252;DHT22;7210;51.502;10.722;2023-07-24T01:55:45;16.30;1.00
14252;DHT22;7210;51.502;10.722;2023-07-24T01:58:14;16.20;1.00
14252;DHT22;7210;51.502;10.722;2023-07-24T02:00:41;16.20;1.00
14252;DHT22;7210;51.502;10.722;2023-07-24T02:03:08;16.20;1.00
14252;DHT22;7210;51.502;10.722;2023-07-24T02:05:36;16.10;1.00
14252;DHT22;7210;51.502;10.722;2023-07-24T02:08:04;16.00;1.00
14252;DHT22;7210;51.502;10.722;2023-07-24T02:10:31;16.00;1.00
14252;DHT22;7210;51.502;10.722;2023-07-24T02:12:58;15.90;1.00
14252;DHT22;7210;51.502;10.722;2023-07-24T02:15:28;16.00;1.00
14252;DHT22;7210;51.502;10.722;2023-07-24T02:17:56;16.00;1.00
14252;DHT22;7210;51.502;10.722;2023-07-24T02:20:23;15.90;1.00
14252;DHT22;7210;51.502;10.722;2023-07-24T02:22:50;16.00;1.00
14252;DHT22;7210;51.502;10.722;2023-07-24T02:25:18;16.00;1.00
14252;DHT22;7210;51.502;10.722;2023-07-24T02:27:45;15.90;1.00
14252;DHT22;7210;51.502;10.722;2023-07-24T02:30:12;16.10;1.00
14252;DHT22;7210;51.502;10.722;2023-07-24T02:32:41;16.00;1.00
14252;DHT22;7210;51.502;10.722;2023-07-24T02:35:08;16.00;1.00
14252;DHT22;7210;51.502;10.722;2023-07-24T02:37:39;16.00;1.00
14252;DHT22;7210;51.502;10.722;2023-07-24T02:40:11;16.00;1.00
14252;DHT22;7210;51.502;10.722;2023-07-24T02:42:39;16.00;1.00
14252;DHT22;7210;51.502;10.722;2023-07-24T02:45:08;16.00;1.00
14252;DHT22;7210;51.502;10.722;2023-07-24T02:47:36;16.00;1.00
14252;DHT22;7210;51.502;10.722;2023-07-24T02:50:07;15.90;1.00
14252;DHT22;7210;51.502;10.722;2023-07-24T02:52:39;16.00;1.00
14252;DHT22;7210;51.502;10.722;2023-07-24T02:55:07;16.10;1.00
14252;DHT22;7210;51.502;10.722;2023-07-24T02:57:35;15.90;1.00
14252;DHT22;7210;51.502;10.722;2023-07-24T03:00:03;15.80;1.00
14252;DHT22;7210;51.502;10.722;2023-07-24T03:02:32;15.80;1.00
14252;DHT22;7210;51.502;10.722;2023-07-24T03:05:00;15.70;1.00
14252;DHT22;7210;51.502;10.722;2023-07-24T03:07:28;15.60;1.00
14252;DHT22;7210;51.502;10.722;2023-07-24T03:09:56;15.60;1.00
14252;DHT22;7210;51.502;10.722;2023-07-24T03:12:23;15.50;1.00
14252;DHT22;7210;51.502;10.722;2023-07-24T03:14:50;15.40;1.00
14252;DHT22;7210;51.502;10.722;2023-07-24T03:17:18;15.40;1.00
14252;DHT22;7210;51.502;10.722;2023-07-24T03:19:45;15.40;1.00
14252;DHT22;7210;51.502;10.722;2023-07-24T03:22:15;15.50;1.00
14252;DHT22;7210;51.502;10.722;2023-07-24T03:24:44;15.50;1.00
14252;DHT22;7210;51.502;10.722;2023-07-24T03:27:11;15.50;1.00
14252;DHT22;7210;51.502;10.722;2023-07-24T03:29:39;15.50;1.00
14252;DHT22;7210;51.502;10.722;2023-07-24T03:32:07;15.50;1.00
14252;DHT22;7210;51.502;10.722;2023-07-24T03:34:34;15.50;1.00
14252;DHT22;7210;51.502;10.722;2023-07-24T03:37:01;15.40;1.00
14252;DHT22;7210;51.502;10.722;2023-07-24T03:39:30;15.60;1.00
14252;DHT22;7210;51.502;10.722;2023-07-24T03:41:58;15.60;1.00
14252;DHT22;7210;51.502;10.722;2023-07-24T03:44:26;15.70;1.00
14252;DHT22;7210;51.502;10.722;2023-07-24T03:46:53;15.70;1.00
14252;DHT22;7210;51.502;10.722;2023-07-24T03:49:20;15.60;1.00
14252;DHT22;7210;51.502;10.722;2023-07-24T03:51:51;15.60;1.00
14252;DHT22;7210;51.502;10.722;2023-07-24T03:54:21;15.60;1.00
14252;DHT22;7210;51.502;10.722;2023-07-24T03:56:49;15.50;1.00
14252;DHT22;7210;51.502;10.722;2023-07-24T03:59:23;15.60;1.00
14252;DHT22;7210;51.502;10.722;2023-07-24T04:01:50;15.60;1.00
14252;DHT22;7210;51.502;10.722;2023-07-24T04:04:21;15.60;1.00
14252;DHT22;7210;51.502;10.722;2023-07-24T04:06:49;15.70;1.00
14252;DHT22;7210;51.502;10.722;2023-07-24T04:09:16;15.80;1.00
14252;DHT22;7210;51.502;10.722;2023-07-24T04:11:44;15.80;1.00
14252;DHT22;7210;51.502;10.722;2023-07-24T04:14:11;15.80;1.00
14252;DHT22;7210;51.502;10.722;2023-07-24T04:16:40;15.80;1.00
14252;DHT22;7210;51.502;10.722;2023-07-24T04:19:07;15.80;1.00
14252;DHT22;7210;51.502;10.722;2023-07-24T04:21:39;15.80;1.00
14252;DHT22;7210;51.502;10.722;2023-07-24T04:24:07;15.90;1.00
14252;DHT22;7210;51.502;10.722;2023-07-24T04:26:39;15.90;1.00
14252;DHT22;7210;51.502;10.722;2023-07-24T04:29:08;15.90;1.00
14252;DHT22;7210;51.502;10.722;2023-07-24T04:31:35;15.90;1.00
14252;DHT22;7210;51.502;10.722;2023-07-24T04:34:03;15.90;1.00
14252;DHT22;7210;51.502;10.722;2023-07-24T04:36:31;15.80;1.00
14252;DHT22;7210;51.502;10.722;2023-07-24T04:38:58;15.80;1.00
14252;DHT22;7210;51.502;10.722;2023-07-24T04:41:25;15.90;1.00
14252;DHT22;7210;51.502;10.722;2023-07-24T04:43:52;16.00;1.00
14252;DHT22;7210;51.502;10.722;2023-07-24T04:46:21;16.00;1.00
14252;DHT22;7210;51.502;10.722;2023-07-24T04:48:48;16.10;1.00
14252;DHT22;7210;51.502;10.722;2023-07-24T04:51:17;16.10;1.00
14252;DHT22;7210;51.502;10.722;2023-07-24T04:53:45;16.00;1.00
14252;DHT22;7210;51.502;10.722;2023-07-24T04:56:12;16.00;1.00
14252;DHT22;7210;51.502;10.722;2023-07-24T04:58:40;16.00;1.00
14252;DHT22;7210;51.502;10.722;2023-07-24T05:01:07;15.90;1.00
14252;DHT22;7210;51.502;10.722;2023-07-24T05:03:35;15.90;1.00
14252;DHT22;7210;51.502;10.722;2023-07-24T05:06:03;15.90;1.00
14252;DHT22;7210;51.502;10.722;2023-07-24T05:08:32;16.00;1.00
14252;DHT22;7210;51.502;10.722;2023-07-24T05:10:59;16.10;1.00
14252;DHT22;7210;51.502;10.722;2023-07-24T05:13:27;16.20;1.00
14252;DHT22;7210;51.502;10.722;2023-07-24T05:15:55;16.30;1.00
14252;DHT22;7210;51.502;10.722;2023-07-24T05:18:22;16.40;1.00
14252;DHT22;7210;51.502;10.722;2023-07-24T05:20:49;16.50;1.00
14252;DHT22;7210;51.502;10.722;2023-07-24T05:23:18;16.70;1.00
14252;DHT22;7210;51.502;10.722;2023-07-24T05:25:47;16.80;1.00
14252;DHT22;7210;51.502;10.722;2023-07-24T05:28:16;16.90;1.00
14252;DHT22;7210;51.502;10.722;2023-07-24T05:30:43;17.10;1.00
14252;DHT22;7210;51.502;10.722;2023-07-24T05:33:10;17.30;1.00
14252;DHT22;7210;51.502;10.722;2023-07-24T05:35:37;17.40;1.00
14252;DHT22;7210;51.502;10.722;2023-07-24T05:38:05;17.60;1.00
14252;DHT22;7210;51.502;10.722;2023-07-24T05:40:35;17.80;1.00
14252;DHT22;7210;51.502;10.722;2023-07-24T05:43:04;18.00;1.00
14252;DHT22;7210;51.502;10.722;2023-07-24T05:45:31;18.10;1.00
14252;DHT22;7210;51.502;10.722;2023-07-24T05:47:58;18.30;1.00
14252;DHT22;7210;51.502;10.722;2023-07-24T05:50:26;18.50;1.00
14252;DHT22;7210;51.502;10.722;2023-07-24T05:52:53;18.70;1.00
14252;DHT22;7210;51.502;10.722;2023-07-24T05:55:20;18.80;1.00
14252;DHT22;7210;51.502;10.722;2023-07-24T05:57:47;19.00;1.00
14252;DHT22;7210;51.502;10.722;2023-07-24T06:00:17;19.10;1.00
14252;DHT22;7210;51.502;10.722;2023-07-24T06:02:45;19.20;1.00
14252;DHT22;7210;51.502;10.722;2023-07-24T06:05:12;19.30;1.00
14252;DHT22;7210;51.502;10.722;2023-07-24T06:07:39;19.50;1.00
14252;DHT22;7210;51.502;10.722;2023-07-24T06:10:07;19.50;1.00
14252;DHT22;7210;51.502;10.722;2023-07-24T06:12:40;19.50;1.00
14252;DHT22;7210;51.502;10.722;2023-07-24T06:15:08;19.50;1.00
14252;DHT22;7210;51.502;10.722;2023-07-24T06:17:37;19.60;1.00
14252;DHT22;7210;51.502;10.722;2023-07-24T06:20:06;19.70;1.00
14252;DHT22;7210;51.502;10.722;2023-07-24T06:22:34;19.80;1.00
14252;DHT22;7210;51.502;10.722;2023-07-24T06:25:04;19.80;1.00
14252;DHT22;7210;51.502;10.722;2023-07-24T06:27:32;20.00;1.00
14252;DHT22;7210;51.502;10.722;2023-07-24T06:30:00;20.10;1.00
14252;DHT22;7210;51.502;10.722;2023-07-24T06:32:27;20.30;1.00
14252;DHT22;7210;51.502;10.722;2023-07-24T06:34:56;20.40;1.00
14252;DHT22;7210;51.502;10.722;2023-07-24T06:37:23;20.50;1.00
14252;DHT22;7210;51.502;10.722;2023-07-24T06:39:51;20.60;1.00
14252;DHT22;7210;51.502;10.722;2023-07-24T06:42:18;20.70;1.00
14252;DHT22;7210;51.502;10.722;2023-07-24T06:44:45;20.80;1.00
14252;DHT22;7210;51.502;10.722;2023-07-24T06:47:12;20.80;1.00
14252;DHT22;7210;51.502;10.722;2023-07-24T06:49:45;20.90;1.00
14252;DHT22;7210;51.502;10.722;2023-07-24T06:52:14;20.90;1.00
14252;DHT22;7210;51.502;10.722;2023-07-24T06:54:42;21.10;1.00
14252;DHT22;7210;51.502;10.722;2023-07-24T06:57:09;21.20;1.00
14252;DHT22;7210;51.502;10.722;2023-07-24T06:59:37;21.30;1.00
14252;DHT22;7210;51.502;10.722;2023-07-24T07:02:04;21.40;1.00
14252;DHT22;7210;51.502;10.722;2023-07-24T07:04:34;21.50;1.00
14252;DHT22;7210;51.502;10.722;2023-07-24T07:07:04;21.70;1.00
14252;DHT22;7210;51.502;10.722;2023-07-24T07:09:33;21.70;1.00
14252;DHT22;7210;51.502;10.722;2023-07-24T07:12:00;21.80;1.00
14252;DHT22;7210;51.502;10.722;2023-07-24T07:14:28;21.80;1.00
14252;DHT22;7210;51.502;10.722;2023-07-24T07:16:57;21.80;1.00
14252;DHT22;7210;51.502;10.722;2023-07-24T07:19:27;21.80;1.00
14252;DHT22;7210;51.502;10.722;2023-07-24T07:21:55;21.90;1.00
14252;DHT22;7210;51.502;10.722;2023-07-24T07:24:22;21.90;1.00
14252;DHT22;7210;51.502;10.722;2023-07-24T07:26:50;22.00;1.00
14252;DHT22;7210;51.502;10.722;2023-07-24T07:29:21;22.00;1.00
14252;DHT22;7210;51.502;10.722;2023-07-24T07:31:49;22.10;1.00
14252;DHT22;7210;51.502;10.722;2023-07-24T07:34:16;22.10;1.00
14252;DHT22;7210;51.502;10.722;2023-07-24T07:36:43;22.10;1.00
14252;DHT22;7210;51.502;10.722;2023-07-24T07:39:10;22.20;1.00
14252;DHT22;7210;51.502;10.722;2023-07-24T07:41:38;22.20;1.00
14252;DHT22;7210;51.502;10.722;2023-07-24T07:44:06;22.20;1.00
14252;DHT22;7210;51.502;10.722;2023-07-24T07:46:34;22.20;1.00
14252;DHT22;7210;51.502;10.722;2023-07-24T07:49:01;22.30;1.00
14252;DHT22;7210;51.502;10.722;2023-07-24T07:51:28;22.30;1.00
14252;DHT22;7210;51.502;10.722;2023-07-24T07:53:55;22.40;1.00
14252;DHT22;7210;51.502;10.722;2023-07-24T07:56:23;22.60;1.00
14252;DHT22;7210;51.502;10.722;2023-07-24T07:58:50;22.60;1.00
14252;DHT22;7210;51.502;10.722;2023-07-24T08:01:18;22.70;1.00
14252;DHT22;7210;51.502;10.722;2023-07-24T08:03:46;22.80;1.00
14252;DHT22;7210;51.502;10.722;2023-07-24T08:06:13;22.90;1.00
14252;DHT22;7210;51.502;10.722;2023-07-24T08:08:41;23.00;1.00
14252;DHT22;7210;51.502;10.722;2023-07-24T08:11:08;23.10;1.00
14252;DHT22;7210;51.502;10.722;2023-07-24T08:13:35;23.30;1.00
14252;DHT22;7210;51.502;10.722;2023-07-24T08:16:13;23.30;1.00
14252;DHT22;7210;51.502;10.722;2023-07-24T08:18:53;23.40;1.00
14252;DHT22;7210;51.502;10.722;2023-07-24T08:21:20;23.50;1.00
14252;DHT22;7210;51.502;10.722;2023-07-24T08:23:47;23.50;1.00
14252;DHT22;7210;51.502;10.722;2023-07-24T08:26:15;23.60;1.00
14252;DHT22;7210;51.502;10.722;2023-07-24T08:28:42;23.80;1.00
14252;DHT22;7210;51.502;10.722;2023-07-24T08:31:09;23.90;1.00
14252;DHT22;7210;51.502;10.722;2023-07-24T08:33:37;24.00;1.00
14252;DHT22;7210;51.502;10.722;2023-07-24T08:36:07;24.10;1.00
14252;DHT22;7210;51.502;10.722;2023-07-24T08:38:35;24.20;1.00
14252;DHT22;7210;51.502;10.722;2023-07-24T08:41:04;24.40;2.30
14252;DHT22;7210;51.502;10.722;2023-07-24T08:43:34;24.60;3.20
14252;DHT22;7210;51.502;10.722;2023-07-24T08:46:03;24.80;4.70
14252;DHT22;7210;51.502;10.722;2023-07-24T08:48:35;25.00;8.20
14252;DHT22;7210;51.502;10.722;2023-07-24T08:51:07;24.90;8.10
14252;DHT22;7210;51.502;10.722;2023-07-24T08:53:46;24.90;7.70
14252;DHT22;7210;51.502;10.722;2023-07-24T08:56:15;24.90;9.40
14252;DHT22;7210;51.502;10.722;2023-07-24T08:58:42;25.00;9.00
14252;DHT22;7210;51.502;10.722;2023-07-24T09:01:10;25.20;15.40
14252;DHT22;7210;51.502;10.722;2023-07-24T09:03:37;25.30;13.90
14252;DHT22;7210;51.502;10.722;2023-07-24T09:06:06;25.40;15.40
14252;DHT22;7210;51.502;10.722;2023-07-24T09:08:34;25.40;15.50
14252;DHT22;7210;51.502;10.722;2023-07-24T09:11:04;25.60;16.40
14252;DHT22;7210;51.502;10.722;2023-07-24T09:13:33;25.80;18.10
14252;DHT22;7210;51.502;10.722;2023-07-24T09:16:02;25.90;21.80
14252;DHT22;7210;51.502;10.722;2023-07-24T09:18:38;25.90;20.10
14252;DHT22;7210;51.502;10.722;2023-07-24T09:21:08;25.80;19.30
14252;DHT22;7210;51.502;10.722;2023-07-24T09:23:37;25.70;19.40
14252;DHT22;7210;51.502;10.722;2023-07-24T09:26:07;25.70;19.50
14252;DHT22;7210;51.502;10.722;2023-07-24T09:28:34;25.70;20.00
14252;DHT22;7210;51.502;10.722;2023-07-24T09:31:02;25.50;19.50
14252;DHT22;7210;51.502;10.722;2023-07-24T09:33:45;25.60;21.60
14252;DHT22;7210;51.502;10.722;2023-07-24T09:36:14;25.70;20.00
14252;DHT22;7210;51.502;10.722;2023-07-24T09:38:41;25.60;21.70
14252;DHT22;7210;51.502;10.722;2023-07-24T09:41:09;25.50;18.80
14252;DHT22;7210;51.502;10.722;2023-07-24T09:43:37;25.60;21.30
14252;DHT22;7210;51.502;10.722;2023-07-24T09:46:09;25.50;19.80
14252;DHT22;7210;51.502;10.722;2023-07-24T09:48:37;25.40;20.00
14252;DHT22;7210;51.502;10.722;2023-07-24T09:51:04;25.50;20.00
14252;DHT22;7210;51.502;10.722;2023-07-24T09:53:36;25.40;20.30
14252;DHT22;7210;51.502;10.722;2023-07-24T09:56:10;25.40;20.20
14252;DHT22;7210;51.502;10.722;2023-07-24T09:58:39;25.40;19.60
14252;DHT22;7210;51.502;10.722;2023-07-24T10:01:08;25.50;20.20
14252;DHT22;7210;51.502;10.722;2023-07-24T10:03:39;25.70;22.30
14252;DHT22;7210;51.502;10.722;2023-07-24T10:06:09;25.70;23.90
14252;DHT22;7210;51.502;10.722;2023-07-24T10:08:42;25.70;24.10
14252;DHT22;7210;51.502;10.722;2023-07-24T10:11:11;25.80;26.20
14252;DHT22;7210;51.502;10.722;2023-07-24T10:13:40;25.90;27.00
14252;DHT22;7210;51.502;10.722;2023-07-24T10:16:08;26.10;30.40
14252;DHT22;7210;51.502;10.722;2023-07-24T10:18:43;26.40;31.60
14252;DHT22;7210;51.502;10.722;2023-07-24T10:21:11;26.60;34.50
14252;DHT22;7210;51.502;10.722;2023-07-24T10:23:43;26.60;36.80
14252;DHT22;7210;51.502;10.722;2023-07-24T10:26:15;26.80;38.20
14252;DHT22;7210;51.502;10.722;2023-07-24T10:28:47;26.90;41.10
14252;DHT22;7210;51.502;10.722;2023-07-24T10:31:22;26.90;39.80
14252;DHT22;7210;51.502;10.722;2023-07-24T10:33:52;27.10;45.00
14252;DHT22;7210;51.502;10.722;2023-07-24T10:36:21;27.30;48.50
14252;DHT22;7210;51.502;10.722;2023-07-24T10:38:54;27.50;51.50
14252;DHT22;7210;51.502;10.722;2023-07-24T10:41:34;27.80;54.30
14252;DHT22;7210;51.502;10.722;2023-07-24T10:44:02;27.90;56.20
14252;DHT22;7210;51.502;10.722;2023-07-24T10:46:36;27.90;57.70
14252;DHT22;7210;51.502;10.722;2023-07-24T10:49:04;28.00;61.10
14252;DHT22;7210;51.502;10.722;2023-07-24T10:51:32;27.60;56.50
14252;DHT22;7210;51.502;10.722;2023-07-24T10:54:05;27.40;54.10
14252;DHT22;7210;51.502;10.722;2023-07-24T10:56:33;27.30;54.10
14252;DHT22;7210;51.502;10.722;2023-07-24T10:59:03;27.20;51.90
14252;DHT22;7210;51.502;10.722;2023-07-24T11:01:31;27.10;54.20
14252;DHT22;7210;51.502;10.722;2023-07-24T11:04:03;26.90;49.40
14252;DHT22;7210;51.502;10.722;2023-07-24T11:06:34;26.70;47.10
14252;DHT22;7210;51.502;10.722;2023-07-24T11:09:01;26.50;45.50
14252;DHT22;7210;51.502;10.722;2023-07-24T11:11:31;26.60;46.40
14252;DHT22;7210;51.502;10.722;2023-07-24T11:13:58;26.50;45.20
14252;DHT22;7210;51.502;10.722;2023-07-24T11:16:27;26.50;43.90
14252;DHT22;7210;51.502;10.722;2023-07-24T11:18:56;26.50;47.50
14252;DHT22;7210;51.502;10.722;2023-07-24T11:21:24;26.60;47.50
14252;DHT22;7210;51.502;10.722;2023-07-24T11:23:53;26.80;50.00
14252;DHT22;7210;51.502;10.722;2023-07-24T11:26:22;27.10;53.00
14252;DHT22;7210;51.502;10.722;2023-07-24T11:28:53;27.30;61.80
14252;DHT22;7210;51.502;10.722;2023-07-24T11:31:20;27.40;59.40
14252;DHT22;7210;51.502;10.722;2023-07-24T11:33:48;27.30;58.90
14252;DHT22;7210;51.502;10.722;2023-07-24T11:36:16;27.20;61.80
14252;DHT22;7210;51.502;10.722;2023-07-24T11:38:46;27.20;58.80
14252;DHT22;7210;51.502;10.722;2023-07-24T11:41:13;27.20;59.80
14252;DHT22;7210;51.502;10.722;2023-07-24T11:43:46;27.20;59.20
14252;DHT22;7210;51.502;10.722;2023-07-24T11:46:24;27.20;56.90
14252;DHT22;7210;51.502;10.722;2023-07-24T11:48:51;27.10;59.30
14252;DHT22;7210;51.502;10.722;2023-07-24T11:51:21;26.90;54.80
14252;DHT22;7210;51.502;10.722;2023-07-24T11:53:50;26.70;54.00
14252;DHT22;7210;51.502;10.722;2023-07-24T11:56:21;26.60;51.00
14252;DHT22;7210;51.502;10.722;2023-07-24T11:58:49;26.50;47.60
14252;DHT22;7210;51.502;10.722;2023-07-24T12:01:16;26.50;47.50
14252;DHT22;7210;51.502;10.722;2023-07-24T12:03:45;26.50;49.40
14252;DHT22;7210;51.502;10.722;2023-07-24T12:06:17;26.50;49.00
14252;DHT22;7210;51.502;10.722;2023-07-24T12:08:45;26.80;54.50
14252;DHT22;7210;51.502;10.722;2023-07-24T12:11:16;27.00;56.10
14252;DHT22;7210;51.502;10.722;2023-07-24T12:13:44;27.20;59.60
14252;DHT22;7210;51.502;10.722;2023-07-24T12:16:15;27.30;59.50
14252;DHT22;7210;51.502;10.722;2023-07-24T12:18:44;27.30;62.70
14252;DHT22;7210;51.502;10.722;2023-07-24T12:21:12;27.50;63.10
14252;DHT22;7210;51.502;10.722;2023-07-24T12:23:39;27.60;67.70
14252;DHT22;7210;51.502;10.722;2023-07-24T12:26:06;27.70;68.70
14252;DHT22;7210;51.502;10.722;2023-07-24T12:28:34;27.60;70.50
14252;DHT22;7210;51.502;10.722;2023-07-24T12:31:03;27.60;69.30
14252;DHT22;7210;51.502;10.722;2023-07-24T12:33:31;27.70;69.60
14252;DHT22;7210;51.502;10.722;2023-07-24T12:36:00;27.80;70.70
14252;DHT22;7210;51.502;10.722;2023-07-24T12:38:28;27.80;71.30
14252;DHT22;7210;51.502;10.722;2023-07-24T12:40:56;27.80;72.00
14252;DHT22;7210;51.502;10.722;2023-07-24T12:43:23;27.80;69.70
14252;DHT22;7210;51.502;10.722;2023-07-24T12:45:50;27.70;72.00
14252;DHT22;7210;51.502;10.722;2023-07-24T12:48:17;27.70;70.60
14252;DHT22;7210;51.502;10.722;2023-07-24T12:50:45;27.80;72.60
14252;DHT22;7210;51.502;10.722;2023-07-24T12:53:13;27.80;73.70
14252;DHT22;7210;51.502;10.722;2023-07-24T12:55:41;28.00;78.00
14252;DHT22;7210;51.502;10.722;2023-07-24T12:58:08;28.10;78.60
14252;DHT22;7210;51.502;10.722;2023-07-24T13:00:35;28.20;82.50
14252;DHT22;7210;51.502;10.722;2023-07-24T13:03:02;28.30;83.30
14252;DHT22;7210;51.502;10.722;2023-07-24T13:05:30;28.50;85.10
14252;DHT22;7210;51.502;10.722;2023-07-24T13:07:57;28.60;89.20
14252;DHT22;7210;51.502;10.722;2023-07-24T13:10:26;28.40;88.90
14252;DHT22;7210;51.502;10.722;2023-07-24T13:12:53;28.50;86.90
14252;DHT22;7210;51.502;10.722;2023-07-24T13:15:21;28.60;92.20
14252;DHT22;7210;51.502;10.722;2023-07-24T13:17:48;28.70;93.00
14252;DHT22;7210;51.502;10.722;2023-07-24T13:20:16;28.60;94.20
14252;DHT22;7210;51.502;10.722;2023-07-24T13:22:43;28.70;96.50
14252;DHT22;7210;51.502;10.722;2023-07-24T13:25:12;28.80;95.60
14252;DHT22;7210;51.502;10.722;2023-07-24T13:27:41;28.90;97.80
14252;DHT22;7210;51.502;10.722;2023-07-24T13:30:09;29.20;99.90
14252;DHT22;7210;51.502;10.722;2023-07-24T13:32:39;29.10;99.90
14252;DHT22;7210;51.502;10.722;2023-07-24T13:35:07;29.30;99.90
14252;DHT22;7210;51.502;10.722;2023-07-24T13:37:35;29.40;99.90
14252;DHT22;7210;51.502;10.722;2023-07-24T13:40:02;29.10;99.90
14252;DHT22;7210;51.502;10.722;2023-07-24T13:42:30;28.80;98.10
14252;DHT22;7210;51.502;10.722;2023-07-24T13:44:59;28.50;99.90
14252;DHT22;7210;51.502;10.722;2023-07-24T13:47:26;28.30;95.00
14252;DHT22;7210;51.502;10.722;2023-07-24T13:49:53;28.00;88.80
14252;DHT22;7210;51.502;10.722;2023-07-24T13:52:21;28.00;88.60
14252;DHT22;7210;51.502;10.722;2023-07-24T13:54:48;28.20;90.90
14252;DHT22;7210;51.502;10.722;2023-07-24T13:57:15;28.20;92.30
14252;DHT22;7210;51.502;10.722;2023-07-24T13:59:42;28.40;92.30
14252;DHT22;7210;51.502;10.722;2023-07-24T14:02:11;28.80;99.90
14252;DHT22;7210;51.502;10.722;2023-07-24T14:04:39;29.10;99.90
14252;DHT22;7210;51.502;10.722;2023-07-24T14:07:06;29.00;99.90
14252;DHT22;7210;51.502;10.722;2023-07-24T14:09:35;28.70;99.90
14252;DHT22;7210;51.502;10.722;2023-07-24T14:12:03;28.60;98.80
14252;DHT22;7210;51.502;10.722;2023-07-24T14:14:31;28.70;99.60
14252;DHT22;7210;51.502;10.722;2023-07-24T14:16:58;28.70;99.90
14252;DHT22;7210;51.502;10.722;2023-07-24T14:19:27;28.80;99.90
14252;DHT22;7210;51.502;10.722;2023-07-24T14:21:54;28.90;99.90
14252;DHT22;7210;51.502;10.722;2023-07-24T14:24:22;29.00;99.90
14252;DHT22;7210;51.502;10.722;2023-07-24T14:26:50;29.40;99.90
14252;DHT22;7210;51.502;10.722;2023-07-24T14:29:17;29.30;99.90
14252;DHT22;7210;51.502;10.722;2023-07-24T14:31:46;29.40;99.90
14252;DHT22;7210;51.502;10.722;2023-07-24T14:34:15;29.70;99.90
14252;DHT22;7210;51.502;10.722;2023-07-24T14:36:44;30.10;99.90
14252;DHT22;7210;51.502;10.722;2023-07-24T14:39:11;30.40;99.90
14252;DHT22;7210;51.502;10.722;2023-07-24T14:41:38;30.60;99.90
14252;DHT22;7210;51.502;10.722;2023-07-24T14:44:06;30.50;99.90
14252;DHT22;7210;51.502;10.722;2023-07-24T14:46:33;30.50;99.90
14252;DHT22;7210;51.502;10.722;2023-07-24T14:49:00;30.50;99.90
14252;DHT22;7210;51.502;10.722;2023-07-24T14:51:27;30.80;99.90
14252;DHT22;7210;51.502;10.722;2023-07-24T14:53:56;30.60;99.90
14252;DHT22;7210;51.502;10.722;2023-07-24T14:56:23;30.20;99.90
14252;DHT22;7210;51.502;10.722;2023-07-24T14:58:51;29.90;99.90
14252;DHT22;7210;51.502;10.722;2023-07-24T15:01:19;29.60;99.90
14252;DHT22;7210;51.502;10.722;2023-07-24T15:03:46;29.40;99.90
14252;DHT22;7210;51.502;10.722;2023-07-24T15:06:13;29.20;99.90
14252;DHT22;7210;51.502;10.722;2023-07-24T15:08:40;28.70;99.90
14252;DHT22;7210;51.502;10.722;2023-07-24T15:11:09;28.30;99.90
14252;DHT22;7210;51.502;10.722;2023-07-24T15:13:37;28.00;98.60
14252;DHT22;7210;51.502;10.722;2023-07-24T15:16:04;27.80;94.90
14252;DHT22;7210;51.502;10.722;2023-07-24T15:18:32;27.50;88.80
14252;DHT22;7210;51.502;10.722;2023-07-24T15:21:00;27.20;87.40
14252;DHT22;7210;51.502;10.722;2023-07-24T15:23:28;27.10;83.10
14252;DHT22;7210;51.502;10.722;2023-07-24T15:25:55;26.80;76.40
14252;DHT22;7210;51.502;10.722;2023-07-24T15:28:24;26.70;77.80
14252;DHT22;7210;51.502;10.722;2023-07-24T15:30:51;26.60;76.20
14252;DHT22;7210;51.502;10.722;2023-07-24T15:33:18;26.50;72.10
14252;DHT22;7210;51.502;10.722;2023-07-24T15:35:46;26.40;75.00
14252;DHT22;7210;51.502;10.722;2023-07-24T15:38:13;24.30;42.30
14252;DHT22;7210;51.502;10.722;2023-07-24T15:40:40;21.60;2.10
14252;DHT22;7210;51.502;10.722;2023-07-24T15:43:08;19.70;1.00
14252;DHT22;7210;51.502;10.722;2023-07-24T15:45:41;18.50;1.00
14252;DHT22;7210;51.502;10.722;2023-07-24T15:48:09;17.80;1.00